sensor_id;sensor_type;location;lat;lon;timestamp;temperature;humidity
19397;DHT22;9834;48.076;11.878;2023-04-24T00:00:35;9.50;99.90
19397;DHT22;9834;48.076;11.878;2023-04-24T00:03:03;9.50;99.90
19397;DHT22;9834;48.076;11.878;2023-04-24T00:05:32;9.50;99.90
19397;DHT22;9834;48.076;11.878;2023-04-24T00:08:00;9.40;99.90
19397;DHT22;9834;48.076;11.878;2023-04-24T00:10:27;9.50;99.90
19397;DHT22;9834;48.076;11.878;2023-04-24T00:12:55;9.40;99.90
19397;DHT22;9834;48.076;11.878;2023-04-24T00:15:22;9.40;99.90
19397;DHT22;9834;48.076;11.878;2023-04-24T00:17:51;9.30;99.90
19397;DHT22;9834;48.076;11.878;2023-04-24T00:20:19;9.30;99.90
19397;DHT22;9834;48.076;11.878;2023-04-24T00:22:47;9.30;99.90
19397;DHT22;9834;48.076;11.878;2023-04-24T00:25:14;9.30;99.90
19397;DHT22;9834;48.076;11.878;2023-04-24T00:27:42;9.30;99.90
19397;DHT22;9834;48.076;11.878;2023-04-24T00:30:10;9.30;99.90
19397;DHT22;9834;48.076;11.878;2023-04-24T00:32:37;9.30;99.90
19397;DHT22;9834;48.076;11.878;2023-04-24T00:35:07;9.30;99.90
19397;DHT22;9834;48.076;11.878;2023-04-24T00:37:35;9.30;99.90
19397;DHT22;9834;48.076;11.878;2023-04-24T00:40:03;9.30;99.90
19397;DHT22;9834;48.076;11.878;2023-04-24T00:42:32;9.30;99.90
19397;DHT22;9834;48.076;11.878;2023-04-24T00:45:01;9.30;99.90
19397;DHT22;9834;48.076;11.878;2023-04-24T00:47:30;9.30;99.90
19397;DHT22;9834;48.076;11.878;2023-04-24T00:49:57;9.20;99.90
19397;DHT22;9834;48.076;11.878;2023-04-24T00:52:26;9.20;99.90
19397;DHT22;9834;48.076;11.878;2023-04-24T00:54:57;9.20;99.90
19397;DHT22;9834;48.076;11.878;2023-04-24T00:57:24;9.10;99.90
19397;DHT22;9834;48.076;11.878;2023-04-24T00:59:52;9.10;99.90
19397;DHT22;9834;48.076;11.878;2023-04-24T01:02:21;9.10;99.90
19397;DHT22;9834;48.076;11.878;2023-04-24T01:04:50;9.00;99.90
19397;DHT22;9834;48.076;11.878;2023-04-24T01:07:19;9.00;99.90
19397;DHT22;9834;48.076;11.878;2023-04-24T01:09:49;9.00;99.90
19397;DHT22;9834;48.076;11.878;2023-04-24T01:12:18;9.00;99.90
19397;DHT22;9834;48.076;11.878;2023-04-24T01:14:45;8.90;99.90
19397;DHT22;9834;48.076;11.878;2023-04-24T01:17:14;8.90;99.90
19397;DHT22;9834;48.076;11.878;2023-04-24T01:19:42;8.90;99.90
19397;DHT22;9834;48.076;11.878;2023-04-24T01:22:13;8.90;99.90
19397;DHT22;9834;48.076;11.878;2023-04-24T01:24:42;8.90;99.90
19397;DHT22;9834;48.076;11.878;2023-04-24T01:27:10;8.80;99.90
19397;DHT22;9834;48.076;11.878;2023-04-24T01:29:38;8.80;99.90
19397;DHT22;9834;48.076;11.878;2023-04-24T01:32:05;8.80;99.90
19397;DHT22;9834;48.076;11.878;2023-04-24T01:34:33;8.50;99.90
19397;DHT22;9834;48.076;11.878;2023-04-24T01:37:01;8.80;99.90
19397;DHT22;9834;48.076;11.878;2023-04-24T01:39:30;8.80;99.90
19397;DHT22;9834;48.076;11.878;2023-04-24T01:42:00;8.80;99.90
19397;DHT22;9834;48.076;11.878;2023-04-24T01:44:28;8.80;99.90
19397;DHT22;9834;48.076;11.878;2023-04-24T01:46:55;8.80;99.90
19397;DHT22;9834;48.076;11.878;2023-04-24T01:49:23;8.80;99.90
19397;DHT22;9834;48.076;11.878;2023-04-24T01:51:50;8.80;99.90
19397;DHT22;9834;48.076;11.878;2023-04-24T01:54:18;8.70;99.90
19397;DHT22;9834;48.076;11.878;2023-04-24T01:56:47;8.70;99.90
19397;DHT22;9834;48.076;11.878;2023-04-24T01:59:16;8.70;99.90
19397;DHT22;9834;48.076;11.878;2023-04-24T02:01:44;8.70;99.90
19397;DHT22;9834;48.076;11.878;2023-04-24T02:04:11;8.70;99.90
19397;DHT22;9834;48.076;11.878;2023-04-24T02:06:39;8.70;99.90
19397;DHT22;9834;48.076;11.878;2023-04-24T02:09:06;8.70;99.90
19397;DHT22;9834;48.076;11.878;2023-04-24T02:11:35;8.70;99.90
19397;DHT22;9834;48.076;11.878;2023-04-24T02:14:03;8.70;99.90
19397;DHT22;9834;48.076;11.878;2023-04-24T02:16:31;8.70;99.90
19397;DHT22;9834;48.076;11.878;2023-04-24T02:18:59;8.70;99.90
19397;DHT22;9834;48.076;11.878;2023-04-24T02:21:27;8.60;99.90
19397;DHT22;9834;48.076;11.878;2023-04-24T02:23:54;8.60;99.90
19397;DHT22;9834;48.076;11.878;2023-04-24T02:26:22;8.60;99.90
19397;DHT22;9834;48.076;11.878;2023-04-24T02:28:49;8.60;99.90
19397;DHT22;9834;48.076;11.878;2023-04-24T02:31:18;8.60;99.90
19397;DHT22;9834;48.076;11.878;2023-04-24T02:33:45;8.60;99.90
19397;DHT22;9834;48.076;11.878;2023-04-24T02:36:14;8.60;99.90
19397;DHT22;9834;48.076;11.878;2023-04-24T02:38:41;8.50;99.90
19397;DHT22;9834;48.076;11.878;2023-04-24T02:41:09;8.50;99.90
19397;DHT22;9834;48.076;11.878;2023-04-24T02:43:36;8.50;99.90
19397;DHT22;9834;48.076;11.878;2023-04-24T02:46:04;8.50;99.90
19397;DHT22;9834;48.076;11.878;2023-04-24T02:48:33;8.40;99.90
19397;DHT22;9834;48.076;11.878;2023-04-24T02:51:00;8.40;99.90
19397;DHT22;9834;48.076;11.878;2023-04-24T02:53:28;8.40;99.90
19397;DHT22;9834;48.076;11.878;2023-04-24T02:55:56;8.40;99.90
19397;DHT22;9834;48.076;11.878;2023-04-24T02:58:24;8.40;99.90
19397;DHT22;9834;48.076;11.878;2023-04-24T03:00:53;8.40;99.90
19397;DHT22;9834;48.076;11.878;2023-04-24T03:03:22;8.40;99.90
19397;DHT22;9834;48.076;11.878;2023-04-24T03:05:51;8.40;99.90
19397;DHT22;9834;48.076;11.878;2023-04-24T03:08:18;8.40;99.90
19397;DHT22;9834;48.076;11.878;2023-04-24T03:10:46;8.40;99.90
19397;DHT22;9834;48.076;11.878;2023-04-24T03:13:13;8.50;99.90
19397;DHT22;9834;48.076;11.878;2023-04-24T03:15:40;8.40;99.90
19397;DHT22;9834;48.076;11.878;2023-04-24T03:18:08;8.30;99.90
19397;DHT22;9834;48.076;11.878;2023-04-24T03:20:35;8.30;99.90
19397;DHT22;9834;48.076;11.878;2023-04-24T03:23:05;8.30;99.90
19397;DHT22;9834;48.076;11.878;2023-04-24T03:25:32;8.20;99.90
19397;DHT22;9834;48.076;11.878;2023-04-24T03:28:00;8.30;99.90
19397;DHT22;9834;48.076;11.878;2023-04-24T03:30:27;8.20;99.90
19397;DHT22;9834;48.076;11.878;2023-04-24T03:32:55;8.20;99.90
19397;DHT22;9834;48.076;11.878;2023-04-24T03:35:23;8.20;99.90
19397;DHT22;9834;48.076;11.878;2023-04-24T03:37:50;8.30;99.90
19397;DHT22;9834;48.076;11.878;2023-04-24T03:40:19;8.20;99.90
19397;DHT22;9834;48.076;11.878;2023-04-24T03:42:47;8.20;99.90
19397;DHT22;9834;48.076;11.878;2023-04-24T03:45:15;8.20;99.90
19397;DHT22;9834;48.076;11.878;2023-04-24T03:47:42;8.20;99.90
19397;DHT22;9834;48.076;11.878;2023-04-24T03:50:11;8.30;99.90
19397;DHT22;9834;48.076;11.878;2023-04-24T03:52:39;8.20;99.90
19397;DHT22;9834;48.076;11.878;2023-04-24T03:55:07;8.30;99.90
19397;DHT22;9834;48.076;11.878;2023-04-24T04:01:16;8.50;99.90
19397;DHT22;9834;48.076;11.878;2023-04-24T04:03:44;8.60;99.90
19397;DHT22;9834;48.076;11.878;2023-04-24T04:06:12;8.30;99.90
19397;DHT22;9834;48.076;11.878;2023-04-24T04:08:39;8.30;99.90
19397;DHT22;9834;48.076;11.878;2023-04-24T04:11:07;8.30;99.90
19397;DHT22;9834;48.076;11.878;2023-04-24T04:13:34;8.30;99.90
19397;DHT22;9834;48.076;11.878;2023-04-24T04:16:05;8.30;99.90
19397;DHT22;9834;48.076;11.878;2023-04-24T04:18:34;8.30;99.90
19397;DHT22;9834;48.076;11.878;2023-04-24T04:21:02;8.30;99.90
19397;DHT22;9834;48.076;11.878;2023-04-24T04:23:32;8.30;99.90
19397;DHT22;9834;48.076;11.878;2023-04-24T04:25:59;8.30;99.90
19397;DHT22;9834;48.076;11.878;2023-04-24T04:28:27;8.30;99.90
19397;DHT22;9834;48.076;11.878;2023-04-24T04:30:56;8.50;99.90
19397;DHT22;9834;48.076;11.878;2023-04-24T04:33:24;8.30;99.90
19397;DHT22;9834;48.076;11.878;2023-04-24T04:35:53;8.30;99.90
19397;DHT22;9834;48.076;11.878;2023-04-24T04:38:22;8.30;99.90
19397;DHT22;9834;48.076;11.878;2023-04-24T04:40:50;8.20;99.90
19397;DHT22;9834;48.076;11.878;2023-04-24T04:43:17;8.20;99.90
19397;DHT22;9834;48.076;11.878;2023-04-24T04:45:45;8.30;99.90
19397;DHT22;9834;48.076;11.878;2023-04-24T04:48:13;8.30;99.90
19397;DHT22;9834;48.076;11.878;2023-04-24T04:50:43;8.30;99.90
19397;DHT22;9834;48.076;11.878;2023-04-24T04:53:14;8.30;99.90
19397;DHT22;9834;48.076;11.878;2023-04-24T04:55:42;8.40;99.90
19397;DHT22;9834;48.076;11.878;2023-04-24T04:58:10;8.40;99.90
19397;DHT22;9834;48.076;11.878;2023-04-24T05:00:38;8.40;99.90
19397;DHT22;9834;48.076;11.878;2023-04-24T05:03:05;8.40;99.90
19397;DHT22;9834;48.076;11.878;2023-04-24T05:05:33;8.50;99.90
19397;DHT22;9834;48.076;11.878;2023-04-24T05:08:00;8.50;99.90
19397;DHT22;9834;48.076;11.878;2023-04-24T05:10:29;8.40;99.90
19397;DHT22;9834;48.076;11.878;2023-04-24T05:12:57;8.50;99.90
19397;DHT22;9834;48.076;11.878;2023-04-24T05:15:24;8.50;99.90
19397;DHT22;9834;48.076;11.878;2023-04-24T05:17:52;8.50;99.90
19397;DHT22;9834;48.076;11.878;2023-04-24T05:20:19;8.50;99.90
19397;DHT22;9834;48.076;11.878;2023-04-24T05:22:47;8.60;99.90
19397;DHT22;9834;48.076;11.878;2023-04-24T05:25:14;8.60;99.90
19397;DHT22;9834;48.076;11.878;2023-04-24T05:27:43;8.70;99.90
19397;DHT22;9834;48.076;11.878;2023-04-24T05:30:12;8.70;99.90
19397;DHT22;9834;48.076;11.878;2023-04-24T05:32:39;8.60;99.90
19397;DHT22;9834;48.076;11.878;2023-04-24T05:35:08;8.60;99.90
19397;DHT22;9834;48.076;11.878;2023-04-24T05:37:35;8.70;99.90
19397;DHT22;9834;48.076;11.878;2023-04-24T05:40:02;8.70;99.90
19397;DHT22;9834;48.076;11.878;2023-04-24T05:42:31;8.70;99.90
19397;DHT22;9834;48.076;11.878;2023-04-24T05:45:00;8.90;99.90
19397;DHT22;9834;48.076;11.878;2023-04-24T05:47:27;8.80;99.90
19397;DHT22;9834;48.076;11.878;2023-04-24T05:49:57;8.80;99.90
19397;DHT22;9834;48.076;11.878;2023-04-24T05:52:24;8.80;99.90
19397;DHT22;9834;48.076;11.878;2023-04-24T05:54:54;8.80;99.90
19397;DHT22;9834;48.076;11.878;2023-04-24T05:57:24;8.30;99.90
19397;DHT22;9834;48.076;11.878;2023-04-24T05:59:55;9.00;99.90
19397;DHT22;9834;48.076;11.878;2023-04-24T06:02:24;9.10;99.90
19397;DHT22;9834;48.076;11.878;2023-04-24T06:04:53;9.20;99.90
19397;DHT22;9834;48.076;11.878;2023-04-24T06:07:21;9.30;99.90
19397;DHT22;9834;48.076;11.878;2023-04-24T06:09:51;9.30;99.90
19397;DHT22;9834;48.076;11.878;2023-04-24T06:12:20;9.30;99.90
19397;DHT22;9834;48.076;11.878;2023-04-24T06:14:49;9.40;99.90
19397;DHT22;9834;48.076;11.878;2023-04-24T06:17:17;9.40;99.90
19397;DHT22;9834;48.076;11.878;2023-04-24T06:19:46;9.40;99.90
19397;DHT22;9834;48.076;11.878;2023-04-24T06:22:13;9.40;99.90
19397;DHT22;9834;48.076;11.878;2023-04-24T06:24:41;9.50;99.90
19397;DHT22;9834;48.076;11.878;2023-04-24T06:27:08;9.40;99.90
19397;DHT22;9834;48.076;11.878;2023-04-24T06:29:36;9.40;99.90
19397;DHT22;9834;48.076;11.878;2023-04-24T06:32:04;9.40;99.90
19397;DHT22;9834;48.076;11.878;2023-04-24T06:34:32;9.40;99.90
19397;DHT22;9834;48.076;11.878;2023-04-24T06:37:01;9.40;99.90
19397;DHT22;9834;48.076;11.878;2023-04-24T06:39:28;9.40;99.90
19397;DHT22;9834;48.076;11.878;2023-04-24T06:41:59;9.40;99.90
19397;DHT22;9834;48.076;11.878;2023-04-24T06:44:37;9.50;99.90
19397;DHT22;9834;48.076;11.878;2023-04-24T06:47:11;9.20;99.90
19397;DHT22;9834;48.076;11.878;2023-04-24T06:49:39;9.60;99.90
19397;DHT22;9834;48.076;11.878;2023-04-24T06:52:08;9.60;99.90
19397;DHT22;9834;48.076;11.878;2023-04-24T06:54:36;8.80;99.90
19397;DHT22;9834;48.076;11.878;2023-04-24T06:57:03;9.30;99.90
19397;DHT22;9834;48.076;11.878;2023-04-24T06:59:30;9.80;99.90
19397;DHT22;9834;48.076;11.878;2023-04-24T07:01:58;9.80;99.90
19397;DHT22;9834;48.076;11.878;2023-04-24T07:04:26;9.80;99.90
19397;DHT22;9834;48.076;11.878;2023-04-24T07:06:54;9.70;99.90
19397;DHT22;9834;48.076;11.878;2023-04-24T07:09:23;9.70;99.90
19397;DHT22;9834;48.076;11.878;2023-04-24T07:11:51;9.70;99.90
19397;DHT22;9834;48.076;11.878;2023-04-24T07:14:19;9.70;99.90
19397;DHT22;9834;48.076;11.878;2023-04-24T07:16:47;9.80;99.90
19397;DHT22;9834;48.076;11.878;2023-04-24T07:19:16;10.00;99.90
19397;DHT22;9834;48.076;11.878;2023-04-24T07:21:43;10.10;99.90
19397;DHT22;9834;48.076;11.878;2023-04-24T07:24:13;10.40;99.90
19397;DHT22;9834;48.076;11.878;2023-04-24T07:26:42;10.60;99.90
19397;DHT22;9834;48.076;11.878;2023-04-24T07:29:11;10.90;99.90
19397;DHT22;9834;48.076;11.878;2023-04-24T07:31:41;11.20;99.90
19397;DHT22;9834;48.076;11.878;2023-04-24T07:34:08;11.20;99.90
19397;DHT22;9834;48.076;11.878;2023-04-24T07:36:36;11.40;99.90
19397;DHT22;9834;48.076;11.878;2023-04-24T07:39:04;11.40;99.90
19397;DHT22;9834;48.076;11.878;2023-04-24T07:41:32;11.80;99.90
19397;DHT22;9834;48.076;11.878;2023-04-24T07:44:02;11.90;99.90
19397;DHT22;9834;48.076;11.878;2023-04-24T07:46:30;11.90;99.90
19397;DHT22;9834;48.076;11.878;2023-04-24T07:48:58;12.20;99.90
19397;DHT22;9834;48.076;11.878;2023-04-24T07:51:31;12.10;99.90
19397;DHT22;9834;48.076;11.878;2023-04-24T07:54:04;12.10;99.90
19397;DHT22;9834;48.076;11.878;2023-04-24T07:56:32;12.10;99.90
19397;DHT22;9834;48.076;11.878;2023-04-24T07:59:01;11.90;99.90
19397;DHT22;9834;48.076;11.878;2023-04-24T08:01:29;11.50;99.90
19397;DHT22;9834;48.076;11.878;2023-04-24T08:03:58;12.00;99.90
19397;DHT22;9834;48.076;11.878;2023-04-24T08:06:26;12.10;99.90
19397;DHT22;9834;48.076;11.878;2023-04-24T08:08:57;12.40;99.90
19397;DHT22;9834;48.076;11.878;2023-04-24T08:11:28;12.50;99.90
19397;DHT22;9834;48.076;11.878;2023-04-24T08:13:58;12.40;99.90
19397;DHT22;9834;48.076;11.878;2023-04-24T08:16:28;12.40;99.90
19397;DHT22;9834;48.076;11.878;2023-04-24T08:18:55;12.50;99.90
19397;DHT22;9834;48.076;11.878;2023-04-24T08:21:23;12.50;99.90
19397;DHT22;9834;48.076;11.878;2023-04-24T08:23:53;12.60;99.90
19397;DHT22;9834;48.076;11.878;2023-04-24T08:26:23;12.60;99.90
19397;DHT22;9834;48.076;11.878;2023-04-24T08:28:50;12.40;99.90
19397;DHT22;9834;48.076;11.878;2023-04-24T08:31:17;12.00;99.90
19397;DHT22;9834;48.076;11.878;2023-04-24T08:33:46;11.80;99.90
19397;DHT22;9834;48.076;11.878;2023-04-24T08:36:14;11.80;99.90
19397;DHT22;9834;48.076;11.878;2023-04-24T08:38:42;11.80;99.90
19397;DHT22;9834;48.076;11.878;2023-04-24T08:41:16;11.80;99.90
19397;DHT22;9834;48.076;11.878;2023-04-24T08:43:46;11.80;99.90
19397;DHT22;9834;48.076;11.878;2023-04-24T08:46:15;11.80;99.90
19397;DHT22;9834;48.076;11.878;2023-04-24T08:48:43;11.90;99.90
19397;DHT22;9834;48.076;11.878;2023-04-24T08:51:20;11.90;99.90
19397;DHT22;9834;48.076;11.878;2023-04-24T08:53:48;11.50;99.90
19397;DHT22;9834;48.076;11.878;2023-04-24T08:56:16;12.70;99.90
19397;DHT22;9834;48.076;11.878;2023-04-24T08:58:44;11.80;99.90
19397;DHT22;9834;48.076;11.878;2023-04-24T09:01:12;11.80;99.90
19397;DHT22;9834;48.076;11.878;2023-04-24T09:03:42;11.80;99.90
19397;DHT22;9834;48.076;11.878;2023-04-24T09:06:10;11.80;99.90
19397;DHT22;9834;48.076;11.878;2023-04-24T09:08:41;11.40;99.90
19397;DHT22;9834;48.076;11.878;2023-04-24T09:11:10;10.70;99.90
19397;DHT22;9834;48.076;11.878;2023-04-24T09:13:38;10.40;99.90
19397;DHT22;9834;48.076;11.878;2023-04-24T09:16:08;10.30;99.90
19397;DHT22;9834;48.076;11.878;2023-04-24T09:18:36;10.50;99.90
19397;DHT22;9834;48.076;11.878;2023-04-24T09:21:06;11.00;99.90
19397;DHT22;9834;48.076;11.878;2023-04-24T09:23:40;11.20;99.90
19397;DHT22;9834;48.076;11.878;2023-04-24T09:26:09;11.30;99.90
19397;DHT22;9834;48.076;11.878;2023-04-24T09:28:39;11.30;99.90
19397;DHT22;9834;48.076;11.878;2023-04-24T09:31:12;11.20;99.90
19397;DHT22;9834;48.076;11.878;2023-04-24T09:33:53;11.00;99.90
19397;DHT22;9834;48.076;11.878;2023-04-24T09:36:30;11.00;99.90
19397;DHT22;9834;48.076;11.878;2023-04-24T09:39:01;11.10;99.90
19397;DHT22;9834;48.076;11.878;2023-04-24T09:41:28;11.00;99.90
19397;DHT22;9834;48.076;11.878;2023-04-24T09:43:57;11.00;99.90
19397;DHT22;9834;48.076;11.878;2023-04-24T09:46:31;11.00;99.90
19397;DHT22;9834;48.076;11.878;2023-04-24T09:49:08;10.80;99.90
19397;DHT22;9834;48.076;11.878;2023-04-24T09:51:37;11.30;99.90
19397;DHT22;9834;48.076;11.878;2023-04-24T09:54:14;11.60;99.90
19397;DHT22;9834;48.076;11.878;2023-04-24T09:56:43;12.00;99.90
19397;DHT22;9834;48.076;11.878;2023-04-24T09:59:12;12.10;99.90
19397;DHT22;9834;48.076;11.878;2023-04-24T10:01:40;13.10;99.20
19397;DHT22;9834;48.076;11.878;2023-04-24T10:04:20;13.70;99.70
19397;DHT22;9834;48.076;11.878;2023-04-24T10:06:49;14.40;95.30
19397;DHT22;9834;48.076;11.878;2023-04-24T10:09:20;14.80;92.50
19397;DHT22;9834;48.076;11.878;2023-04-24T10:11:51;14.40;92.00
19397;DHT22;9834;48.076;11.878;2023-04-24T10:14:20;14.40;91.50
19397;DHT22;9834;48.076;11.878;2023-04-24T10:16:48;14.50;87.00
19397;DHT22;9834;48.076;11.878;2023-04-24T10:19:17;14.20;86.90
19397;DHT22;9834;48.076;11.878;2023-04-24T10:21:46;14.00;88.00
19397;DHT22;9834;48.076;11.878;2023-04-24T10:24:17;13.50;85.60
19397;DHT22;9834;48.076;11.878;2023-04-24T10:26:48;13.80;87.00
19397;DHT22;9834;48.076;11.878;2023-04-24T10:29:18;14.10;87.50
19397;DHT22;9834;48.076;11.878;2023-04-24T10:31:48;14.40;87.90
19397;DHT22;9834;48.076;11.878;2023-04-24T10:34:16;14.60;84.40
19397;DHT22;9834;48.076;11.878;2023-04-24T10:36:49;14.40;81.40
19397;DHT22;9834;48.076;11.878;2023-04-24T10:39:20;14.30;82.40
19397;DHT22;9834;48.076;11.878;2023-04-24T10:41:50;14.40;85.90
19397;DHT22;9834;48.076;11.878;2023-04-24T10:44:17;14.80;84.60
19397;DHT22;9834;48.076;11.878;2023-04-24T10:46:46;14.60;81.50
19397;DHT22;9834;48.076;11.878;2023-04-24T10:49:16;14.30;82.00
19397;DHT22;9834;48.076;11.878;2023-04-24T10:51:50;14.50;84.10
19397;DHT22;9834;48.076;11.878;2023-04-24T10:54:26;15.00;81.30
19397;DHT22;9834;48.076;11.878;2023-04-24T10:57:27;15.00;82.10
19397;DHT22;9834;48.076;11.878;2023-04-24T11:00:14;14.90;79.50
19397;DHT22;9834;48.076;11.878;2023-04-24T11:02:49;14.60;83.40
19397;DHT22;9834;48.076;11.878;2023-04-24T11:05:22;13.90;81.00
19397;DHT22;9834;48.076;11.878;2023-04-24T11:08:11;14.00;83.60
19397;DHT22;9834;48.076;11.878;2023-04-24T11:10:40;13.60;83.50
19397;DHT22;9834;48.076;11.878;2023-04-24T11:13:09;13.40;86.20
19397;DHT22;9834;48.076;11.878;2023-04-24T11:15:41;13.30;87.30
19397;DHT22;9834;48.076;11.878;2023-04-24T11:18:17;13.10;87.50
19397;DHT22;9834;48.076;11.878;2023-04-24T11:20:45;12.60;93.70
19397;DHT22;9834;48.076;11.878;2023-04-24T11:23:15;11.10;99.90
19397;DHT22;9834;48.076;11.878;2023-04-24T11:25:43;10.20;99.90
19397;DHT22;9834;48.076;11.878;2023-04-24T11:28:15;9.80;99.90
19397;DHT22;9834;48.076;11.878;2023-04-24T11:30:43;9.80;99.90
19397;DHT22;9834;48.076;11.878;2023-04-24T11:33:10;9.90;99.90
19397;DHT22;9834;48.076;11.878;2023-04-24T11:35:40;10.50;99.90
19397;DHT22;9834;48.076;11.878;2023-04-24T11:38:07;11.30;99.90
19397;DHT22;9834;48.076;11.878;2023-04-24T11:40:35;12.30;99.90
19397;DHT22;9834;48.076;11.878;2023-04-24T11:43:09;13.40;99.90
19397;DHT22;9834;48.076;11.878;2023-04-24T11:45:48;14.10;93.30
19397;DHT22;9834;48.076;11.878;2023-04-24T11:48:20;14.50;92.20
19397;DHT22;9834;48.076;11.878;2023-04-24T11:50:48;15.20;90.30
19397;DHT22;9834;48.076;11.878;2023-04-24T11:53:16;16.00;83.00
19397;DHT22;9834;48.076;11.878;2023-04-24T11:55:45;16.40;79.00
19397;DHT22;9834;48.076;11.878;2023-04-24T11:58:13;16.50;78.00
19397;DHT22;9834;48.076;11.878;2023-04-24T12:00:43;16.20;77.20
19397;DHT22;9834;48.076;11.878;2023-04-24T12:03:12;15.50;78.90
19397;DHT22;9834;48.076;11.878;2023-04-24T12:05:44;14.70;83.20
19397;DHT22;9834;48.076;11.878;2023-04-24T12:08:11;14.30;82.90
19397;DHT22;9834;48.076;11.878;2023-04-24T12:10:39;14.00;83.60
19397;DHT22;9834;48.076;11.878;2023-04-24T12:13:09;14.10;83.30
19397;DHT22;9834;48.076;11.878;2023-04-24T12:15:41;14.60;81.60
19397;DHT22;9834;48.076;11.878;2023-04-24T12:18:12;14.50;81.20
19397;DHT22;9834;48.076;11.878;2023-04-24T12:20:40;14.10;80.60
19397;DHT22;9834;48.076;11.878;2023-04-24T12:23:11;13.60;84.80
19397;DHT22;9834;48.076;11.878;2023-04-24T12:25:39;13.70;88.80
19397;DHT22;9834;48.076;11.878;2023-04-24T12:28:13;13.60;88.00
19397;DHT22;9834;48.076;11.878;2023-04-24T12:30:44;13.30;89.60
19397;DHT22;9834;48.076;11.878;2023-04-24T12:33:17;12.60;92.50
19397;DHT22;9834;48.076;11.878;2023-04-24T12:35:45;11.20;99.90
19397;DHT22;9834;48.076;11.878;2023-04-24T12:38:16;9.90;99.90
19397;DHT22;9834;48.076;11.878;2023-04-24T12:41:00;9.70;99.90
19397;DHT22;9834;48.076;11.878;2023-04-24T12:43:28;8.70;99.90
19397;DHT22;9834;48.076;11.878;2023-04-24T12:45:58;9.60;99.90
19397;DHT22;9834;48.076;11.878;2023-04-24T12:48:26;9.60;99.90
19397;DHT22;9834;48.076;11.878;2023-04-24T12:50:55;9.50;99.90
19397;DHT22;9834;48.076;11.878;2023-04-24T12:53:26;9.60;99.90
19397;DHT22;9834;48.076;11.878;2023-04-24T12:55:55;9.60;99.90
19397;DHT22;9834;48.076;11.878;2023-04-24T12:58:23;9.80;99.90
19397;DHT22;9834;48.076;11.878;2023-04-24T13:00:51;10.00;99.90
19397;DHT22;9834;48.076;11.878;2023-04-24T13:03:22;10.20;99.90
19397;DHT22;9834;48.076;11.878;2023-04-24T13:05:50;10.30;99.90
19397;DHT22;9834;48.076;11.878;2023-04-24T13:08:22;10.20;99.90
19397;DHT22;9834;48.076;11.878;2023-04-24T13:10:50;10.00;99.90
19397;DHT22;9834;48.076;11.878;2023-04-24T13:13:19;9.60;99.90
19397;DHT22;9834;48.076;11.878;2023-04-24T13:15:47;9.40;99.90
19397;DHT22;9834;48.076;11.878;2023-04-24T13:18:19;9.20;99.90
19397;DHT22;9834;48.076;11.878;2023-04-24T13:20:48;9.10;99.90
19397;DHT22;9834;48.076;11.878;2023-04-24T13:23:26;10.40;99.90
19397;DHT22;9834;48.076;11.878;2023-04-24T13:25:53;9.70;99.90
19397;DHT22;9834;48.076;11.878;2023-04-24T13:28:24;10.30;99.90
19397;DHT22;9834;48.076;11.878;2023-04-24T13:30:57;10.50;99.90
19397;DHT22;9834;48.076;11.878;2023-04-24T13:33:29;10.60;99.90
19397;DHT22;9834;48.076;11.878;2023-04-24T13:35:57;10.70;99.90
19397;DHT22;9834;48.076;11.878;2023-04-24T13:38:25;11.10;99.90
19397;DHT22;9834;48.076;11.878;2023-04-24T13:40:52;11.60;99.90
19397;DHT22;9834;48.076;11.878;2023-04-24T13:43:20;12.50;99.90
19397;DHT22;9834;48.076;11.878;2023-04-24T13:45:53;13.50;99.90
19397;DHT22;9834;48.076;11.878;2023-04-24T13:48:23;12.90;99.90
19397;DHT22;9834;48.076;11.878;2023-04-24T13:50:52;12.40;99.90
19397;DHT22;9834;48.076;11.878;2023-04-24T13:53:19;12.20;99.90
19397;DHT22;9834;48.076;11.878;2023-04-24T13:55:48;11.90;99.90
19397;DHT22;9834;48.076;11.878;2023-04-24T13:58:18;11.90;99.90
19397;DHT22;9834;48.076;11.878;2023-04-24T14:00:47;11.90;99.90
19397;DHT22;9834;48.076;11.878;2023-04-24T14:03:17;11.90;99.90
19397;DHT22;9834;48.076;11.878;2023-04-24T14:05:52;11.80;99.90
19397;DHT22;9834;48.076;11.878;2023-04-24T14:08:19;11.40;99.90
19397;DHT22;9834;48.076;11.878;2023-04-24T14:10:47;10.90;99.90
19397;DHT22;9834;48.076;11.878;2023-04-24T14:13:15;10.60;99.90
19397;DHT22;9834;48.076;11.878;2023-04-24T14:15:44;10.60;99.90
19397;DHT22;9834;48.076;11.878;2023-04-24T14:18:12;10.70;99.90
19397;DHT22;9834;48.076;11.878;2023-04-24T14:20:40;10.80;99.90
19397;DHT22;9834;48.076;11.878;2023-04-24T14:23:09;10.90;99.90
19397;DHT22;9834;48.076;11.878;2023-04-24T14:25:37;10.90;99.90
19397;DHT22;9834;48.076;11.878;2023-04-24T14:28:07;10.80;99.90
19397;DHT22;9834;48.076;11.878;2023-04-24T14:30:38;11.00;99.90
19397;DHT22;9834;48.076;11.878;2023-04-24T14:33:09;11.20;99.90
19397;DHT22;9834;48.076;11.878;2023-04-24T14:35:38;11.70;99.90
19397;DHT22;9834;48.076;11.878;2023-04-24T14:38:09;12.20;99.90
19397;DHT22;9834;48.076;11.878;2023-04-24T14:40:37;14.20;99.90
19397;DHT22;9834;48.076;11.878;2023-04-24T14:43:05;15.60;92.50
19397;DHT22;9834;48.076;11.878;2023-04-24T14:45:32;15.30;87.20
19397;DHT22;9834;48.076;11.878;2023-04-24T14:48:00;14.40;89.40
19397;DHT22;9834;48.076;11.878;2023-04-24T14:50:28;14.30;90.50
19397;DHT22;9834;48.076;11.878;2023-04-24T14:52:59;13.70;91.40
19397;DHT22;9834;48.076;11.878;2023-04-24T14:55:38;13.20;91.90
19397;DHT22;9834;48.076;11.878;2023-04-24T14:58:06;12.80;95.60
19397;DHT22;9834;48.076;11.878;2023-04-24T15:00:33;12.40;95.70
19397;DHT22;9834;48.076;11.878;2023-04-24T15:03:03;12.20;97.50
19397;DHT22;9834;48.076;11.878;2023-04-24T15:05:31;11.90;97.70
19397;DHT22;9834;48.076;11.878;2023-04-24T15:07:59;11.80;98.20
19397;DHT22;9834;48.076;11.878;2023-04-24T15:10:27;11.90;99.10
19397;DHT22;9834;48.076;11.878;2023-04-24T15:16:34;12.50;96.10
19397;DHT22;9834;48.076;11.878;2023-04-24T15:19:02;12.70;91.60
19397;DHT22;9834;48.076;11.878;2023-04-24T15:21:32;12.70;79.90
19397;DHT22;9834;48.076;11.878;2023-04-24T15:24:00;13.10;74.80
19397;DHT22;9834;48.076;11.878;2023-04-24T15:26:33;13.60;72.30
19397;DHT22;9834;48.076;11.878;2023-04-24T15:29:02;13.70;69.40
19397;DHT22;9834;48.076;11.878;2023-04-24T15:31:30;13.80;70.20
19397;DHT22;9834;48.076;11.878;2023-04-24T15:33:59;14.00;66.00
19397;DHT22;9834;48.076;11.878;2023-04-24T15:36:28;15.20;62.90
19397;DHT22;9834;48.076;11.878;2023-04-24T15:39:01;17.00;58.90
19397;DHT22;9834;48.076;11.878;2023-04-24T15:41:28;17.40;56.90
19397;DHT22;9834;48.076;11.878;2023-04-24T15:43:57;16.30;57.10
19397;DHT22;9834;48.076;11.878;2023-04-24T15:49:47;14.20;61.10
19397;DHT22;9834;48.076;11.878;2023-04-24T15:52:17;13.50;64.10
19397;DHT22;9834;48.076;11.878;2023-04-24T15:54:45;13.10;64.70
19397;DHT22;9834;48.076;11.878;2023-04-24T15:57:12;12.80;66.40
19397;DHT22;9834;48.076;11.878;2023-04-24T15:59:40;12.60;66.40